Time;durP1;ratioP1;P1;durP2;ratioP2;P2;SDS_P1;SDS_P2;PMS_P1;PMS_P2;Temp;Humidity;BMP_temperature;BMP_pressure;BME280_temperature;BME280_humidity;BME280_pressure;Samples;Min_cycle;Max_cycle;Signal;HPM_P1;HPM_P2
2022/04/17 00:02:03;;;;;;;6.55;5.95;;;7.50;99.90;;;;;;5007566;28;20819;-80
2022/04/17 00:04:29;;;;;;;6.30;5.80;;;7.50;99.90;;;;;;4995247;28;20486;-80
2022/04/17 00:06:55;;;;;;;6.63;5.90;;;7.50;99.90;;;;;;4994800;28;20501;-79
2022/04/17 00:09:21;;;;;;;6.25;5.72;;;7.50;99.90;;;;;;5009585;28;20390;-80
2022/04/17 00:11:46;;;;;;;6.60;6.00;;;7.20;99.90;;;;;;4999212;28;20409;-79
2022/04/17 00:14:12;;;;;;;6.65;6.05;;;7.50;99.90;;;;;;4996488;28;20387;-79
2022/04/17 00:16:40;;;;;;;7.10;6.40;;;7.70;99.90;;;;;;4997896;28;20776;-80
2022/04/17 00:19:06;;;;;;;7.15;6.55;;;7.40;99.90;;;;;;4979167;28;20891;-79
2022/04/17 00:21:33;;;;;;;7.20;6.60;;;7.10;99.90;;;;;;4995550;28;20425;-79
2022/04/17 00:23:59;;;;;;;7.32;6.72;;;6.50;99.90;;;;;;4992260;28;20951;-80
2022/04/17 00:26:24;;;;;;;7.57;6.88;;;6.90;99.90;;;;;;4994519;28;20595;-79
2022/04/17 00:28:50;;;;;;;7.90;7.10;;;7.30;99.90;;;;;;4997430;28;20390;-80
2022/04/17 00:31:16;;;;;;;7.97;7.17;;;7.30;99.90;;;;;;4996777;28;20401;-81
2022/04/17 00:33:41;;;;;;;7.93;7.30;;;7.40;99.90;;;;;;4998486;28;20378;-80
2022/04/17 00:36:07;;;;;;;8.10;7.45;;;7.70;99.90;;;;;;4995859;28;20444;-79
2022/04/17 00:38:33;;;;;;;8.65;7.63;;;7.80;99.90;;;;;;4995956;28;20894;-79
2022/04/17 00:40:58;;;;;;;7.82;7.13;;;7.20;99.90;;;;;;4991706;28;20916;-79
2022/04/17 00:43:26;;;;;;;8.25;7.50;;;7.50;99.90;;;;;;4994897;28;20463;-79
2022/04/17 00:45:59;;;;;;;7.85;7.15;;;7.50;99.90;;;;;;4995285;28;20414;-79
2022/04/17 00:48:25;;;;;;;8.35;7.57;;;7.80;99.90;;;;;;4994108;28;20409;-79
2022/04/17 00:50:55;;;;;;;8.18;7.38;;;7.60;99.90;;;;;;4996459;28;20874;-79
2022/04/17 00:53:23;;;;;;;8.43;7.53;;;7.40;99.90;;;;;;4995941;28;20407;-79
2022/04/17 00:55:49;;;;;;;8.77;8.02;;;7.30;99.90;;;;;;4997749;28;20386;-79
2022/04/17 00:58:15;;;;;;;8.55;7.80;;;7.20;99.90;;;;;;4995535;28;20493;-79
2022/04/17 01:00:41;;;;;;;8.90;8.13;;;7.40;99.90;;;;;;4995461;28;20938;-79
2022/04/17 01:03:10;;;;;;;9.23;8.43;;;7.20;99.90;;;;;;4993726;28;20398;-79
2022/04/17 01:05:38;;;;;;;9.32;8.52;;;7.10;99.90;;;;;;4992197;28;20418;-79
2022/04/17 01:08:04;;;;;;;9.18;8.38;;;7.20;99.90;;;;;;4996384;28;20459;-79
2022/04/17 01:10:31;;;;;;;9.00;8.30;;;7.20;99.90;;;;;;4996095;28;20839;-79
2022/04/17 01:12:59;;;;;;;9.40;8.63;;;7.30;99.90;;;;;;4994578;28;20752;-79
2022/04/17 01:15:25;;;;;;;9.60;8.80;;;7.30;99.90;;;;;;4995270;28;20498;-79
2022/04/17 01:17:51;;;;;;;10.07;8.80;;;7.30;99.90;;;;;;4993694;28;20469;-79
2022/04/17 01:20:17;;;;;;;9.35;8.55;;;7.10;99.90;;;;;;4994085;28;20745;-79
2022/04/17 01:22:49;;;;;;;8.80;8.00;;;6.90;99.90;;;;;;4995889;28;20398;-79
2022/04/17 01:28:01;;;;;;;9.38;8.38;;;6.70;99.90;;;;;;4995258;28;20875;-79
2022/04/17 01:30:27;;;;;;;8.80;8.10;;;6.60;99.90;;;;;;4996876;28;20389;-79
2022/04/17 01:32:52;;;;;;;9.88;8.88;;;6.40;99.90;;;;;;4994601;28;20453;-79
2022/04/17 01:35:18;;;;;;;9.13;8.43;;;6.40;99.90;;;;;;4995442;28;20406;-79
2022/04/17 01:37:48;;;;;;;8.60;7.90;;;6.40;99.90;;;;;;4977228;28;20911;-79
2022/04/17 01:40:14;;;;;;;9.35;8.30;;;6.60;99.90;;;;;;4993733;28;20477;-80
2022/04/17 01:42:39;;;;;;;9.33;8.53;;;6.80;99.90;;;;;;4993051;28;20482;-79
2022/04/17 01:45:05;;;;;;;7.80;7.20;;;6.50;99.90;;;;;;4992927;28;20770;-79
2022/04/17 01:47:31;;;;;;;8.50;7.80;;;6.60;99.90;;;;;;4994617;28;20813;-79
2022/04/17 01:49:57;;;;;;;8.20;7.50;;;6.60;99.90;;;;;;4993765;28;20470;-79
2022/04/17 01:52:22;;;;;;;8.02;7.32;;;6.60;99.90;;;;;;4994374;28;20383;-79
2022/04/17 01:54:48;;;;;;;8.05;7.35;;;6.60;99.90;;;;;;4993100;28;20880;-79
2022/04/17 01:57:14;;;;;;;7.50;6.90;;;6.50;99.90;;;;;;4992937;28;20395;-79
2022/04/17 01:59:39;;;;;;;7.00;6.50;;;6.20;99.90;;;;;;4996174;28;20481;-79
2022/04/17 02:02:05;;;;;;;7.30;6.80;;;6.30;99.90;;;;;;4993527;28;20962;-79
2022/04/17 02:04:35;;;;;;;7.47;6.77;;;6.20;99.90;;;;;;4993260;28;20433;-79
2022/04/17 02:07:04;;;;;;;6.85;6.35;;;6.10;99.90;;;;;;4992705;28;20453;-79
2022/04/17 02:09:30;;;;;;;7.45;6.85;;;6.50;99.90;;;;;;4992508;28;20422;-79
2022/04/17 02:11:56;;;;;;;7.35;6.70;;;6.60;99.90;;;;;;4995007;28;20420;-79
2022/04/17 02:14:22;;;;;;;6.90;6.30;;;6.70;99.90;;;;;;4994539;28;20466;-79
2022/04/17 02:16:48;;;;;;;7.38;6.68;;;7.10;99.90;;;;;;4996057;28;20420;-80
2022/04/17 02:19:14;;;;;;;7.20;6.50;;;6.80;99.90;;;;;;4994975;28;20398;-79
2022/04/17 02:21:39;;;;;;;6.80;6.20;;;6.60;99.90;;;;;;4996125;28;20841;-79
2022/04/17 02:24:05;;;;;;;7.40;6.70;;;6.70;99.90;;;;;;4996509;28;20749;-79
2022/04/17 02:26:31;;;;;;;7.30;6.70;;;6.30;99.90;;;;;;4992869;28;20457;-79
2022/04/17 02:28:58;;;;;;;7.20;6.50;;;6.40;99.90;;;;;;4993258;28;20383;-79
2022/04/17 02:31:24;;;;;;;7.13;6.63;;;6.50;99.90;;;;;;4992466;28;20394;-79
2022/04/17 02:33:51;;;;;;;7.22;6.63;;;6.30;99.90;;;;;;4995451;28;20407;-79
2022/04/17 02:36:16;;;;;;;7.72;7.13;;;6.30;99.90;;;;;;4994539;28;20365;-79
2022/04/17 02:38:42;;;;;;;6.87;6.27;;;6.20;99.90;;;;;;4995336;28;20398;-79
2022/04/17 02:41:07;;;;;;;6.93;6.43;;;6.10;99.90;;;;;;4993951;28;20461;-79
2022/04/17 02:43:33;;;;;;;7.30;6.70;;;6.10;99.90;;;;;;4993361;28;20508;-79
2022/04/17 02:45:59;;;;;;;7.20;6.60;;;6.10;99.90;;;;;;4994296;28;20461;-79
2022/04/17 02:48:24;;;;;;;6.60;6.10;;;6.10;99.90;;;;;;4992659;28;20940;-79
2022/04/17 02:50:50;;;;;;;7.10;6.50;;;6.30;99.90;;;;;;4992926;28;20386;-79
2022/04/17 02:53:16;;;;;;;7.30;6.60;;;6.00;99.90;;;;;;4991993;28;20393;-79
2022/04/17 02:55:43;;;;;;;7.22;6.63;;;6.00;99.90;;;;;;4991790;28;20909;-79
2022/04/17 02:58:10;;;;;;;7.70;7.00;;;5.80;99.90;;;;;;4986811;28;20430;-79
2022/04/17 03:05:36;;;;;;;7.72;7.10;;;5.80;99.90;;;;;;4992519;28;20803;-79
2022/04/17 03:06:10;;;;;;;7.57;7.00;;;5.70;99.90;;;;;;4989301;28;20779;-79
2022/04/17 03:08:37;;;;;;;7.70;7.10;;;5.80;99.90;;;;;;4994208;28;20390;-79
2022/04/17 03:11:03;;;;;;;7.30;6.60;;;5.70;99.90;;;;;;4987992;28;20397;-79
2022/04/17 03:13:29;;;;;;;7.38;6.78;;;5.80;99.90;;;;;;4995187;28;20949;-79
2022/04/17 03:15:55;;;;;;;7.10;6.60;;;5.80;99.90;;;;;;4991521;28;20398;-80
2022/04/17 03:18:20;;;;;;;7.60;7.00;;;5.70;99.90;;;;;;4993685;28;20390;-79
2022/04/17 03:20:47;;;;;;;7.87;7.17;;;5.70;99.90;;;;;;4992455;28;20743;-79
2022/04/17 03:23:13;;;;;;;7.20;6.60;;;5.60;99.90;;;;;;4992210;28;20386;-79
2022/04/17 03:25:39;;;;;;;7.30;6.80;;;5.50;99.90;;;;;;4991823;28;20414;-79
2022/04/17 03:28:05;;;;;;;7.88;7.20;;;5.50;99.90;;;;;;4994433;28;20418;-79
2022/04/17 03:30:31;;;;;;;7.35;6.75;;;5.30;99.90;;;;;;4996187;28;20936;-79
2022/04/17 03:32:57;;;;;;;7.25;6.55;;;5.60;99.90;;;;;;4993567;28;20378;-79
2022/04/17 03:35:23;;;;;;;6.72;6.22;;;5.70;99.90;;;;;;5005976;28;20481;-79
2022/04/17 03:37:49;;;;;;;7.15;6.55;;;5.80;99.90;;;;;;4992945;28;20513;-79
2022/04/17 03:40:16;;;;;;;7.07;6.38;;;5.70;99.90;;;;;;4992482;28;20390;-79
2022/04/17 03:42:42;;;;;;;7.50;6.90;;;5.90;99.90;;;;;;4995003;28;20405;-79
2022/04/17 03:45:11;;;;;;;7.90;7.20;;;5.90;99.90;;;;;;4995270;28;20406;-79
2022/04/17 03:47:38;;;;;;;7.25;6.70;;;5.80;99.90;;;;;;4997334;28;20385;-79
2022/04/17 03:50:05;;;;;;;7.10;6.60;;;5.70;99.90;;;;;;4997384;28;20821;-80
2022/04/17 03:52:41;;;;;;;6.88;6.32;;;5.70;99.90;;;;;;4998760;28;20395;-79
2022/04/17 03:55:07;;;;;;;6.70;6.20;;;5.50;99.90;;;;;;4996324;28;20471;-79
2022/04/17 03:57:33;;;;;;;6.78;6.20;;;5.20;99.90;;;;;;5006131;28;20900;-79
2022/04/17 03:59:59;;;;;;;6.22;5.72;;;5.30;99.90;;;;;;4997900;28;20397;-79
2022/04/17 04:02:26;;;;;;;6.20;5.60;;;5.30;99.90;;;;;;4996859;28;20804;-79
2022/04/17 04:04:53;;;;;;;5.88;5.40;;;5.10;99.90;;;;;;4997938;28;20382;-78
2022/04/17 04:07:19;;;;;;;6.20;5.70;;;5.20;99.90;;;;;;4996080;28;20394;-79
2022/04/17 04:09:44;;;;;;;5.85;5.05;;;5.20;99.90;;;;;;4996519;28;20398;-79
2022/04/17 04:12:10;;;;;;;5.50;5.10;;;5.30;99.90;;;;;;4995248;28;20469;-79
2022/04/17 04:14:36;;;;;;;5.70;5.30;;;5.90;99.90;;;;;;4994574;28;20421;-79
2022/04/17 04:17:01;;;;;;;5.50;5.10;;;5.10;99.90;;;;;;5009152;28;20385;-79
2022/04/17 04:19:27;;;;;;;5.50;5.03;;;5.50;99.90;;;;;;4993256;28;20402;-79
2022/04/17 04:21:53;;;;;;;5.67;5.17;;;5.70;99.90;;;;;;4998506;28;20723;-79
2022/04/17 04:24:24;;;;;;;5.43;5.03;;;6.10;99.90;;;;;;4996119;28;20817;-79
2022/04/17 04:29:36;;;;;;;5.78;5.28;;;5.60;99.90;;;;;;4998292;28;20879;-79
2022/04/17 04:32:02;;;;;;;5.63;5.22;;;5.50;99.90;;;;;;4993420;28;20406;-79
2022/04/17 04:34:28;;;;;;;6.00;5.50;;;5.50;99.90;;;;;;4994397;28;20764;-79
2022/04/17 04:36:54;;;;;;;5.65;5.18;;;5.60;99.90;;;;;;4994536;28;20383;-80
2022/04/17 04:39:19;;;;;;;6.15;5.65;;;5.60;99.90;;;;;;4995337;28;20394;-79
2022/04/17 04:41:45;;;;;;;5.82;5.32;;;5.30;99.90;;;;;;4996668;28;20402;-79
2022/04/17 04:44:11;;;;;;;6.50;5.93;;;5.70;99.90;;;;;;4998039;28;20467;-79
2022/04/17 04:46:38;;;;;;;6.95;6.35;;;5.40;99.90;;;;;;4995585;28;20410;-79
2022/04/17 04:51:47;;;;;;;5.90;5.40;;;5.60;99.90;;;;;;4994920;28;20373;-79
2022/04/17 04:54:13;;;;;;;5.95;5.45;;;5.80;99.90;;;;;;4994311;28;20393;-78
2022/04/17 04:56:39;;;;;;;5.90;5.40;;;5.90;99.90;;;;;;4994329;28;20394;-79
2022/04/17 04:59:05;;;;;;;5.90;5.40;;;5.80;99.90;;;;;;4993956;28;20441;-79
2022/04/17 05:01:31;;;;;;;5.78;5.28;;;5.90;99.90;;;;;;4996149;28;20401;-79
2022/04/17 05:03:56;;;;;;;5.50;5.10;;;6.00;99.90;;;;;;4994362;28;20441;-78
2022/04/17 05:06:22;;;;;;;5.70;5.20;;;5.90;99.90;;;;;;4995469;28;20970;-79
2022/04/17 05:08:48;;;;;;;5.90;5.40;;;5.80;99.90;;;;;;4995111;28;20391;-79
2022/04/17 05:11:13;;;;;;;6.10;5.60;;;5.80;99.90;;;;;;4993604;28;20448;-79
2022/04/17 05:13:39;;;;;;;6.32;5.82;;;5.60;99.90;;;;;;4997776;28;20463;-79
2022/04/17 05:16:05;;;;;;;6.22;5.72;;;5.50;99.90;;;;;;4994958;28;20398;-79
2022/04/17 05:18:31;;;;;;;6.30;5.80;;;5.50;99.90;;;;;;4994935;28;20389;-79
2022/04/17 05:20:57;;;;;;;6.15;5.75;;;5.40;99.90;;;;;;4990898;28;20388;-78
2022/04/17 05:23:29;;;;;;;5.97;5.50;;;5.50;99.90;;;;;;5006568;28;20430;-79
2022/04/17 05:25:56;;;;;;;5.97;5.57;;;5.60;99.90;;;;;;4994025;28;20444;-79
2022/04/17 05:28:22;;;;;;;5.70;5.30;;;5.50;99.90;;;;;;4993612;28;20868;-79
2022/04/17 05:30:48;;;;;;;6.10;5.68;;;5.50;99.90;;;;;;4990776;28;20406;-78
2022/04/17 05:33:18;;;;;;;5.97;5.47;;;5.40;99.90;;;;;;4983863;28;20442;-78
2022/04/17 05:35:44;;;;;;;5.80;5.38;;;6.10;99.90;;;;;;4997209;28;21210;-78
2022/04/17 05:38:11;;;;;;;5.70;5.30;;;5.50;99.90;;;;;;4994871;28;20394;-78
2022/04/17 05:40:46;;;;;;;5.37;4.97;;;5.50;99.90;;;;;;4994452;28;20393;-78
2022/04/17 05:43:11;;;;;;;5.40;5.00;;;5.70;99.90;;;;;;5006624;28;20402;-77
2022/04/17 05:45:38;;;;;;;5.70;5.30;;;5.60;99.90;;;;;;4994058;28;20908;-79
2022/04/17 05:48:09;;;;;;;5.20;4.80;;;5.60;99.90;;;;;;4993417;28;20481;-79
2022/04/17 05:50:36;;;;;;;5.73;5.23;;;5.60;99.90;;;;;;4993421;28;20603;-79
2022/04/17 05:53:02;;;;;;;6.07;5.57;;;5.70;99.90;;;;;;4995310;28;20409;-78
2022/04/17 05:55:28;;;;;;;5.73;5.33;;;5.90;99.90;;;;;;4995004;28;20408;-78
2022/04/17 05:57:54;;;;;;;5.43;5.03;;;5.90;99.90;;;;;;4996714;28;20473;-78
2022/04/17 06:00:20;;;;;;;5.70;5.20;;;5.70;99.90;;;;;;4994432;28;20795;-78
2022/04/17 06:02:48;;;;;;;5.45;4.95;;;5.70;99.90;;;;;;4992403;28;20390;-79
2022/04/17 06:05:15;;;;;;;5.88;5.45;;;6.40;99.90;;;;;;4996790;28;20480;-79
2022/04/17 06:07:41;;;;;;;6.25;5.75;;;5.80;99.90;;;;;;4994207;28;20394;-79
2022/04/17 06:10:09;;;;;;;6.50;6.00;;;5.60;99.90;;;;;;4995636;28;20396;-79
2022/04/17 06:12:35;;;;;;;6.50;5.90;;;5.80;99.90;;;;;;4988644;28;20398;-79
2022/04/17 06:15:01;;;;;;;6.25;5.75;;;5.80;99.90;;;;;;4993804;28;20383;-80
2022/04/17 06:17:27;;;;;;;6.43;5.93;;;5.80;99.90;;;;;;4992380;28;20394;-79
2022/04/17 06:19:52;;;;;;;6.50;6.00;;;6.00;99.90;;;;;;4995390;28;20390;-79
2022/04/17 06:22:18;;;;;;;5.93;5.43;;;6.70;99.90;;;;;;4989332;28;20890;-80
2022/04/17 06:24:45;;;;;;;5.95;5.53;;;6.20;99.90;;;;;;4994769;28;20795;-80
2022/04/17 06:27:10;;;;;;;5.57;5.18;;;6.10;99.90;;;;;;4996655;28;20443;-79
2022/04/17 06:29:36;;;;;;;6.00;5.40;;;6.20;99.90;;;;;;4994059;28;20422;-81
2022/04/17 06:32:02;;;;;;;5.17;4.77;;;6.10;99.90;;;;;;4995161;28;20390;-82
2022/04/17 06:34:27;;;;;;;5.43;5.03;;;6.20;99.90;;;;;;4993130;28;20744;-81
2022/04/17 06:36:53;;;;;;;5.40;4.97;;;6.20;99.90;;;;;;4993431;28;20396;-79
2022/04/17 06:39:18;;;;;;;5.43;4.93;;;6.10;99.90;;;;;;4993337;28;20799;-81
2022/04/17 06:41:45;;;;;;;6.23;4.90;;;6.10;99.90;;;;;;4992514;28;20386;-80
2022/04/17 06:44:14;;;;;;;5.60;5.10;;;6.10;99.90;;;;;;4988120;28;20450;-79
2022/04/17 06:46:40;;;;;;;5.53;5.10;;;6.20;99.90;;;;;;4992063;28;20446;-79
2022/04/17 06:49:09;;;;;;;5.03;4.70;;;6.40;99.90;;;;;;4994425;28;20974;-79
2022/04/17 06:51:34;;;;;;;4.90;4.60;;;6.50;99.90;;;;;;4993745;28;20387;-79
2022/04/17 06:54:00;;;;;;;4.82;4.43;;;6.40;99.90;;;;;;4994448;28;20760;-79
2022/04/17 06:56:25;;;;;;;4.75;4.35;;;6.40;99.90;;;;;;4992488;28;20533;-79
2022/04/17 06:58:51;;;;;;;5.03;4.63;;;6.70;99.90;;;;;;4990207;28;20812;-79
2022/04/17 07:01:17;;;;;;;4.80;4.40;;;6.80;99.90;;;;;;4997890;28;20409;-79
2022/04/17 07:03:46;;;;;;;4.45;4.10;;;7.00;99.90;;;;;;4993661;28;20401;-79
2022/04/17 07:06:12;;;;;;;4.90;4.50;;;7.10;99.90;;;;;;4990400;28;20414;-79
2022/04/17 07:08:38;;;;;;;4.72;4.32;;;7.20;99.90;;;;;;4993970;28;20473;-79
2022/04/17 07:11:04;;;;;;;4.63;4.23;;;7.00;99.90;;;;;;5003595;28;20501;-79
2022/04/17 07:13:30;;;;;;;4.50;4.10;;;7.10;99.90;;;;;;4990889;28;20390;-79
2022/04/17 07:15:56;;;;;;;4.45;4.05;;;7.10;99.90;;;;;;4991370;28;20398;-78
2022/04/17 07:18:21;;;;;;;4.18;3.88;;;7.10;99.90;;;;;;5001011;28;20417;-79
2022/04/17 07:20:47;;;;;;;4.80;4.30;;;7.20;99.90;;;;;;4996044;28;20402;-80
2022/04/17 07:23:13;;;;;;;4.50;4.10;;;7.30;99.90;;;;;;5008769;28;20488;-80
2022/04/17 07:25:39;;;;;;;4.07;3.60;;;7.20;99.90;;;;;;4995551;28;20414;-79
2022/04/17 07:28:12;;;;;;;4.45;4.15;;;7.30;99.90;;;;;;4994020;28;20895;-79
2022/04/17 07:30:37;;;;;;;3.97;3.67;;;7.40;99.90;;;;;;4998925;28;20382;-79
2022/04/17 07:33:03;;;;;;;3.90;3.60;;;7.50;99.90;;;;;;4995438;28;20441;-79
2022/04/17 07:35:30;;;;;;;4.53;4.07;;;7.60;99.90;;;;;;4997466;28;20392;-79
2022/04/17 07:38:00;;;;;;;3.92;3.63;;;7.60;99.90;;;;;;4998323;28;20461;-81
2022/04/17 07:40:30;;;;;;;3.92;3.63;;;7.70;99.90;;;;;;4994821;28;20390;-82
2022/04/17 07:42:59;;;;;;;3.75;3.45;;;8.20;99.90;;;;;;4995107;28;20456;-84
2022/04/17 07:45:25;;;;;;;3.88;3.58;;;7.90;99.90;;;;;;5008043;28;20480;-82
2022/04/17 07:47:51;;;;;;;3.70;3.50;;;7.90;99.90;;;;;;4996921;28;20740;-82
2022/04/17 07:50:23;;;;;;;3.85;3.55;;;8.00;99.90;;;;;;4997149;28;20472;-81
2022/04/17 07:52:50;;;;;;;3.78;3.42;;;8.10;99.90;;;;;;4996275;28;20532;-81
2022/04/17 07:55:16;;;;;;;3.95;3.65;;;8.10;99.90;;;;;;4996794;28;20391;-83
2022/04/17 08:00:27;;;;;;;5.07;3.65;;;8.20;99.90;;;;;;4995565;28;20391;-82
2022/04/17 08:02:55;;;;;;;4.10;3.80;;;8.10;99.90;;;;;;4996807;28;20764;-82
2022/04/17 08:05:24;;;;;;;4.03;3.72;;;8.10;99.90;;;;;;4993957;28;20474;-82
2022/04/17 08:07:52;;;;;;;3.72;3.42;;;8.20;99.90;;;;;;4992940;28;20909;-82
2022/04/17 08:10:17;;;;;;;3.40;3.20;;;8.50;99.90;;;;;;4996244;28;20422;-82
2022/04/17 08:12:44;;;;;;;3.85;3.55;;;8.30;99.90;;;;;;4997106;28;20426;-82
2022/04/17 08:15:10;;;;;;;3.97;3.58;;;8.50;99.90;;;;;;4996392;28;20391;-82
2022/04/17 08:17:36;;;;;;;3.90;3.60;;;8.70;99.90;;;;;;4995561;28;20379;-82
2022/04/17 08:20:02;;;;;;;4.22;3.25;;;8.80;99.20;;;;;;4997970;28;20389;-83
2022/04/17 08:22:27;;;;;;;4.25;3.58;;;8.80;99.70;;;;;;4999396;28;20449;-82
2022/04/17 08:24:53;;;;;;;4.53;3.40;;;8.90;99.50;;;;;;4998080;28;20387;-83
2022/04/17 08:27:18;;;;;;;3.80;3.40;;;9.00;99.10;;;;;;4996340;28;20775;-82
2022/04/17 08:29:44;;;;;;;3.30;3.00;;;9.00;99.50;;;;;;4997276;28;20474;-82
2022/04/17 08:32:10;;;;;;;4.20;3.30;;;9.00;98.90;;;;;;4996104;28;20381;-82
2022/04/17 08:34:35;;;;;;;3.57;3.27;;;9.10;99.60;;;;;;4996295;28;20454;-82
2022/04/17 08:37:01;;;;;;;3.50;3.22;;;9.30;98.90;;;;;;4998416;28;20402;-82
2022/04/17 08:39:26;;;;;;;3.08;2.78;;;9.30;98.60;;;;;;4997557;28;20391;-81
2022/04/17 08:41:54;;;;;;;3.60;3.10;;;9.40;98.10;;;;;;4997941;28;20434;-82
2022/04/17 08:44:22;;;;;;;3.70;3.30;;;9.40;98.00;;;;;;4995683;28;20476;-81
2022/04/17 08:46:48;;;;;;;3.10;2.80;;;9.40;97.90;;;;;;4996502;28;20919;-83
2022/04/17 08:49:14;;;;;;;3.30;3.00;;;9.50;97.30;;;;;;4995360;28;20390;-82
2022/04/17 08:51:42;;;;;;;3.10;2.90;;;9.60;96.80;;;;;;4995685;28;20753;-82
2022/04/17 08:54:08;;;;;;;3.67;3.33;;;9.60;97.10;;;;;;4996176;28;20386;-83
2022/04/17 08:56:36;;;;;;;3.40;3.10;;;9.70;97.50;;;;;;4996163;28;20390;-82
2022/04/17 08:59:02;;;;;;;4.30;3.27;;;9.80;98.70;;;;;;4996575;28;20975;-82
2022/04/17 09:01:28;;;;;;;3.10;2.80;;;10.00;97.80;;;;;;4995989;28;20473;-83
2022/04/17 09:03:53;;;;;;;3.13;2.92;;;10.30;98.60;;;;;;4995397;28;20405;-82
2022/04/17 09:06:20;;;;;;;4.45;2.80;;;10.40;97.30;;;;;;4995061;28;20891;-82
2022/04/17 09:09:04;;;;;;;3.60;3.30;;;10.50;97.40;;;;;;4995374;28;20978;-82
2022/04/17 09:11:31;;;;;;;4.65;4.13;;;10.50;96.50;;;;;;4991889;28;20469;-82
2022/04/17 09:13:58;;;;;;;10.57;8.70;;;10.40;95.60;;;;;;4977946;28;20890;-83
2022/04/17 09:16:29;;;;;;;4.50;4.07;;;10.50;96.40;;;;;;4993775;28;20465;-83
2022/04/17 09:18:56;;;;;;;21.98;12.80;;;10.60;95.90;;;;;;4995753;28;20459;-83
2022/04/17 09:21:33;;;;;;;44.03;23.17;;;10.70;95.60;;;;;;4994160;28;20408;-83
2022/04/17 09:24:18;;;;;;;3.17;2.70;;;10.90;95.90;;;;;;4997199;28;20815;-83
2022/04/17 09:27:03;;;;;;;42.75;23.20;;;11.10;96.20;;;;;;4994860;28;20410;-83
2022/04/17 09:29:33;;;;;;;4.68;3.63;;;11.10;95.30;;;;;;4993522;28;20461;-83
2022/04/17 09:32:14;;;;;;;8.15;6.53;;;11.20;95.00;;;;;;4994309;28;20397;-82
2022/04/17 09:34:45;;;;;;;10.05;9.05;;;11.30;94.50;;;;;;4991185;28;20382;-83
2022/04/17 09:37:18;;;;;;;8.80;8.07;;;11.40;95.50;;;;;;4995337;28;20422;-83
2022/04/17 09:39:45;;;;;;;3.88;3.58;;;11.70;94.20;;;;;;4995498;28;20866;-83
2022/04/17 09:42:11;;;;;;;4.63;4.22;;;11.60;94.10;;;;;;4994160;28;20735;-83
2022/04/17 09:44:47;;;;;;;3.60;3.05;;;11.70;94.60;;;;;;4994357;28;20942;-84
2022/04/17 09:47:16;;;;;;;3.55;3.35;;;11.70;94.00;;;;;;4991259;28;20505;-84
2022/04/17 09:50:08;;;;;;;3.05;2.85;;;11.70;94.40;;;;;;4993114;28;20383;-84
2022/04/17 09:52:56;;;;;;;3.28;2.90;;;12.10;95.40;;;;;;4992675;28;20383;-83
2022/04/17 09:55:28;;;;;;;3.33;3.00;;;12.30;94.20;;;;;;4997281;28;20387;-84
2022/04/17 09:57:58;;;;;;;2.92;2.65;;;12.40;93.60;;;;;;4994520;28;20864;-84
2022/04/17 10:00:24;;;;;;;3.13;2.30;;;12.60;92.80;;;;;;4995915;28;20871;-85
2022/04/17 10:02:50;;;;;;;4.73;3.33;;;12.60;93.60;;;;;;4993816;28;20394;-84
2022/04/17 10:05:17;;;;;;;2.00;1.90;;;12.70;93.70;;;;;;4994423;28;20384;-85
2022/04/17 10:07:45;;;;;;;2.40;2.20;;;13.00;94.90;;;;;;4993185;28;20747;-84
2022/04/17 10:10:12;;;;;;;2.67;2.10;;;13.20;92.80;;;;;;4993253;28;20378;-84
2022/04/17 10:12:47;;;;;;;2.20;1.77;;;13.40;92.60;;;;;;4992491;28;20398;-84
2022/04/17 10:15:13;;;;;;;2.40;2.10;;;13.60;92.80;;;;;;4995898;28;20379;-84
2022/04/17 10:17:44;;;;;;;1.92;1.83;;;13.60;92.40;;;;;;4996000;28;20386;-84
2022/04/17 10:20:12;;;;;;;2.70;1.98;;;13.60;92.00;;;;;;4991884;28;20390;-85
2022/04/17 10:22:40;;;;;;;2.40;2.20;;;13.70;92.50;;;;;;4993621;28;20477;-84
2022/04/17 10:25:08;;;;;;;2.55;2.00;;;13.80;92.60;;;;;;4993860;28;20931;-84
2022/04/17 10:27:40;;;;;;;2.72;1.95;;;13.90;91.30;;;;;;4996331;28;20459;-84
2022/04/17 10:30:14;;;;;;;2.38;2.17;;;13.70;91.30;;;;;;4996804;28;20397;-84
2022/04/17 10:33:18;;;;;;;2.38;2.17;;;13.60;91.80;;;;;;4994405;28;20738;-84
2022/04/17 10:36:04;;;;;;;2.50;2.30;;;13.70;92.00;;;;;;4992018;28;20391;-84
2022/04/17 10:38:46;;;;;;;2.40;2.20;;;13.70;92.20;;;;;;4992616;28;20382;-84
2022/04/17 10:41:13;;;;;;;2.95;2.10;;;13.90;92.30;;;;;;4995192;28;20382;-84
2022/04/17 10:43:42;;;;;;;2.08;1.83;;;14.00;92.40;;;;;;4994137;28;20425;-84
2022/04/17 10:46:18;;;;;;;2.27;2.07;;;14.20;93.10;;;;;;4993815;28;20413;-84
2022/04/17 10:48:48;;;;;;;2.25;1.80;;;14.40;94.00;;;;;;4993286;28;20935;-84
2022/04/17 10:51:25;;;;;;;1.90;1.80;;;14.60;91.80;;;;;;4994475;28;20441;-84
2022/04/17 10:54:10;;;;;;;3.72;2.00;;;14.70;90.50;;;;;;4994652;28;20382;-84
2022/04/17 10:56:36;;;;;;;2.15;1.45;;;14.90;90.70;;;;;;4998077;28;20457;-85
2022/04/17 10:59:19;;;;;;;2.10;1.70;;;14.90;89.60;;;;;;4998959;28;20403;-85
2022/04/17 11:01:45;;;;;;;1.73;1.63;;;14.90;90.40;;;;;;4999717;28;20853;-84
2022/04/17 11:04:27;;;;;;;1.90;1.70;;;14.70;89.30;;;;;;4997701;28;20390;-84
2022/04/17 11:06:54;;;;;;;1.52;1.40;;;14.80;90.00;;;;;;4998892;28;20469;-84
2022/04/17 11:09:22;;;;;;;1.95;1.50;;;14.80;90.00;;;;;;4997161;28;20390;-84
2022/04/17 11:11:48;;;;;;;2.13;1.70;;;15.00;90.60;;;;;;4997282;28;20389;-85
2022/04/17 11:14:17;;;;;;;1.50;1.40;;;15.10;89.30;;;;;;4996710;28;20414;-84
2022/04/17 11:16:49;;;;;;;1.50;1.40;;;15.30;89.10;;;;;;4996445;28;20529;-84
2022/04/17 11:19:18;;;;;;;2.58;1.60;;;15.40;89.70;;;;;;4996654;28;20390;-85
2022/04/17 11:21:47;;;;;;;1.60;1.40;;;15.60;90.00;;;;;;4995959;28;20394;-85
2022/04/17 11:24:12;;;;;;;1.67;1.35;;;15.60;87.80;;;;;;4999851;28;20386;-84
2022/04/17 11:26:53;;;;;;;3.10;1.50;;;15.50;88.50;;;;;;4997452;28;20433;-84
2022/04/17 11:29:48;;;;;;;1.75;1.50;;;15.60;90.50;;;;;;4998135;28;20883;-84
2022/04/17 11:32:16;;;;;;;1.63;1.52;;;15.90;89.20;;;;;;4997482;28;20395;-85
2022/04/17 11:34:43;;;;;;;1.83;1.63;;;16.20;87.10;;;;;;4996426;28;20747;-84
2022/04/17 11:37:09;;;;;;;1.50;1.30;;;16.30;86.90;;;;;;4997792;28;20751;-85
2022/04/17 11:39:36;;;;;;;2.10;1.60;;;16.20;89.60;;;;;;4998596;28;20382;-84
2022/04/17 11:42:04;;;;;;;1.60;1.50;;;16.00;87.10;;;;;;4996643;28;20395;-84
2022/04/17 11:44:29;;;;;;;2.58;1.73;;;16.10;87.40;;;;;;4996532;28;20771;-83
2022/04/17 11:46:56;;;;;;;2.15;1.70;;;16.20;88.90;;;;;;4996449;28;20425;-83
2022/04/17 11:49:22;;;;;;;1.47;1.37;;;16.40;90.60;;;;;;4995893;28;20414;-83
2022/04/17 11:51:48;;;;;;;2.20;1.55;;;16.60;87.50;;;;;;4998045;28;20415;-84
2022/04/17 11:54:32;;;;;;;2.03;1.40;;;16.50;89.50;;;;;;4997567;28;20387;-83
2022/04/17 11:56:58;;;;;;;2.20;1.40;;;16.50;85.60;;;;;;4999472;28;20954;-83
2022/04/17 11:59:23;;;;;;;2.40;2.08;;;16.40;86.90;;;;;;4996931;28;20494;-83
2022/04/17 12:02:08;;;;;;;1.90;1.50;;;16.50;87.60;;;;;;4997431;28;20395;-84
2022/04/17 12:04:33;;;;;;;3.90;1.50;;;16.50;85.70;;;;;;4996284;28;20748;-84
2022/04/17 12:06:59;;;;;;;1.90;1.60;;;16.30;86.40;;;;;;4996514;28;20425;-84
2022/04/17 12:09:25;;;;;;;2.60;1.30;;;16.30;87.20;;;;;;4995220;28;20423;-84
2022/04/17 12:11:51;;;;;;;2.10;1.40;;;16.40;88.30;;;;;;4995141;28;20803;-85
2022/04/17 12:14:32;;;;;;;2.20;1.40;;;16.80;87.80;;;;;;4997277;28;20461;-85
2022/04/17 12:16:58;;;;;;;1.50;1.35;;;16.70;84.70;;;;;;4998433;28;20397;-85
2022/04/17 12:19:27;;;;;;;1.73;1.45;;;16.80;86.10;;;;;;4995240;28;20407;-84
2022/04/17 12:21:53;;;;;;;1.88;1.27;;;16.90;85.10;;;;;;4996373;28;20429;-84
2022/04/17 12:24:19;;;;;;;1.30;1.20;;;16.90;85.00;;;;;;4995958;28;20383;-84
2022/04/17 12:26:46;;;;;;;2.22;1.30;;;16.80;85.50;;;;;;4996140;28;20795;-85
2022/04/17 12:29:12;;;;;;;2.17;1.25;;;16.90;86.00;;;;;;4997703;28;20390;-84
2022/04/17 12:31:38;;;;;;;2.57;1.63;;;17.10;85.30;;;;;;4995067;28;20390;-83
2022/04/17 12:34:09;;;;;;;3.50;3.20;;;17.20;83.60;;;;;;4995003;28;20409;-84
2022/04/17 12:36:38;;;;;;;2.28;1.30;;;17.00;83.80;;;;;;4997748;28;20879;-84
2022/04/17 12:39:05;;;;;;;1.30;1.20;;;17.00;82.40;;;;;;4995912;28;20398;-84
2022/04/17 12:41:40;;;;;;;1.20;1.10;;;16.90;83.20;;;;;;4995859;28;20430;-83
2022/04/17 12:44:06;;;;;;;2.60;1.20;;;16.90;83.70;;;;;;4994571;28;20767;-84
2022/04/17 12:46:33;;;;;;;1.20;1.10;;;16.80;83.00;;;;;;4994380;28;20446;-85
2022/04/17 12:49:18;;;;;;;1.42;1.10;;;16.90;81.90;;;;;;4996734;28;20800;-83
2022/04/17 12:51:59;;;;;;;1.08;0.90;;;17.20;84.20;;;;;;4998640;28;20858;-84
2022/04/17 12:54:32;;;;;;;1.60;1.10;;;17.40;83.70;;;;;;4995951;28;20398;-84
2022/04/17 12:57:08;;;;;;;1.77;1.20;;;17.50;83.30;;;;;;4996082;28;20401;-84
2022/04/17 12:59:49;;;;;;;1.35;1.10;;;17.40;81.70;;;;;;4997900;28;20398;-84
2022/04/17 13:02:22;;;;;;;1.20;1.10;;;16.80;79.50;;;;;;4994789;28;20505;-84
2022/04/17 13:04:51;;;;;;;1.50;1.10;;;16.70;81.30;;;;;;4992798;28;20383;-84
2022/04/17 13:07:17;;;;;;;2.20;2.10;;;16.90;81.20;;;;;;4994461;28;20761;-85
2022/04/17 13:09:49;;;;;;;3.93;3.63;;;16.90;81.40;;;;;;4992641;28;20387;-84
2022/04/17 13:12:32;;;;;;;9.90;9.15;;;17.00;82.50;;;;;;4998512;28;20401;-84